Time;durP1;ratioP1;P1;durP2;ratioP2;P2;SDS_P1;SDS_P2;PMS_P1;PMS_P2;Temp;Humidity;BMP_temperature;BMP_pressure;BME280_temperature;BME280_humidity;BME280_pressure;Samples;Min_cycle;Max_cycle;Signal;HPM_P1;HPM_P2
2021/11/01 00:02:05;;;;;;;7.25;4.40;;;;;;;12.91;99.00;99024.53;20819697;28;20041;-70
2021/11/01 00:12:08;;;;;;;8.98;4.20;;;;;;;12.81;99.32;99037.25;20819170;28;20136;-70
2021/11/01 00:22:09;;;;;;;6.38;3.47;;;;;;;12.80;99.16;99071.47;20818629;28;20344;-71
2021/11/01 00:32:11;;;;;;;6.78;2.53;;;;;;;12.68;98.03;99086.00;20817015;28;20049;-71
2021/11/01 00:42:13;;;;;;;6.13;2.10;;;;;;;12.58;96.73;99106.56;20816678;28;20045;-70
2021/11/01 00:52:19;;;;;;;4.13;1.52;;;;;;;12.41;96.22;99109.09;20816649;28;20045;-70
2021/11/01 01:02:21;;;;;;;4.35;1.35;;;;;;;12.26;96.75;99112.38;20815898;28;20071;-72
2021/11/01 01:12:24;;;;;;;5.43;1.70;;;;;;;12.18;97.17;99144.22;20816940;28;20324;-70
2021/11/01 01:22:29;;;;;;;10.15;1.90;;;;;;;12.06;97.40;99171.81;20816112;28;20570;-71
2021/11/01 01:32:30;;;;;;;;;;;;;;;11.95;98.42;99200.25;20826787;28;20127;-71
2021/11/01 01:42:34;;;;;;;4.57;1.60;;;;;;;11.89;98.70;99213.63;20831121;28;19955;-71
2021/11/01 01:52:35;;;;;;;6.95;1.33;;;;;;;11.71;98.44;99204.69;20831475;28;20541;-72
2021/11/01 02:02:37;;;;;;;6.65;1.33;;;;;;;11.61;98.55;99178.88;20829704;28;20103;-72
2021/11/01 02:12:42;;;;;;;6.78;1.23;;;;;;;11.56;98.71;99166.81;20833603;28;20091;-72
2021/11/01 02:23:12;;;;;;;7.03;1.33;;;;;;;11.44;99.14;99151.56;20828748;28;20476;-72
2021/11/01 02:33:15;;;;;;;4.80;1.30;;;;;;;11.36;99.20;99158.88;20827707;28;20045;-71
2021/11/01 02:43:17;;;;;;;7.82;1.40;;;;;;;11.22;99.08;99182.13;20826130;28;20049;-72
2021/11/01 02:53:19;;;;;;;4.18;1.25;;;;;;;11.13;98.32;99204.28;20826000;28;20042;-72
2021/11/01 03:03:21;;;;;;;4.45;1.25;;;;;;;11.00;98.92;99206.50;20824580;28;20049;-73
2021/11/01 03:13:35;;;;;;;4.70;1.10;;;;;;;11.00;98.58;99211.72;20822720;28;20112;-71
2021/11/01 03:23:37;;;;;;;3.45;1.10;;;;;;;10.92;98.96;99211.19;20822909;28;20045;-71
2021/11/01 03:33:39;;;;;;;3.30;1.00;;;;;;;10.87;98.74;99210.47;20821984;28;20045;-71
2021/11/01 03:43:54;;;;;;;7.85;1.20;;;;;;;10.79;98.33;99194.19;20821745;28;20103;-71
2021/11/01 03:53:55;;;;;;;5.47;1.13;;;;;;;10.73;97.74;99212.72;20819982;28;20229;-71
2021/11/01 04:03:59;;;;;;;8.63;1.55;;;;;;;10.69;98.93;99212.00;20820149;28;20432;-71
2021/11/01 04:14:03;;;;;;;6.25;1.50;;;;;;;10.61;99.17;99229.72;20818725;28;20042;-71
2021/11/01 04:24:05;;;;;;;4.87;1.10;;;;;;;10.63;97.93;99245.38;20818376;28;20049;-72
2021/11/01 04:34:17;;;;;;;7.25;1.33;;;;;;;10.56;98.28;99252.59;20817833;28;20045;-72
2021/11/01 04:54:38;;;;;;;5.00;1.10;;;;;;;10.47;97.62;99243.28;20816527;28;20491;-71
2021/11/01 05:04:41;;;;;;;6.75;1.40;;;;;;;10.47;97.92;99248.50;20822276;28;20068;-70
2021/11/01 05:14:55;;;;;;;5.90;1.00;;;;;;;10.41;97.50;99240.88;20834013;28;20045;-71
2021/11/01 05:25:08;;;;;;;7.13;1.57;;;;;;;10.36;97.99;99236.72;20831914;28;20095;-70
2021/11/01 05:35:10;;;;;;;10.60;1.58;;;;;;;10.33;96.71;99221.94;20831224;28;20391;-70
2021/11/01 05:45:12;;;;;;;8.23;1.20;;;;;;;10.27;97.20;99232.63;20831114;28;20061;-70
2021/11/01 06:16:05;;;;;;;5.15;1.00;;;;;;;10.37;94.13;99268.03;20794526;28;20606;-70
2021/11/01 06:26:07;;;;;;;3.33;0.90;;;;;;;10.27;94.28;99253.56;20827028;28;20079;-71
2021/11/01 06:57:18;;;;;;;2.70;0.75;;;;;;;10.21;94.91;99319.13;20825108;28;20099;-70
2021/11/01 08:50:21;;;;;;;5.10;1.20;;;;;;;10.30;90.65;99337.19;20810485;28;20142;-71
2021/11/01 09:41:37;;;;;;;2.67;0.80;;;;;;;11.17;88.36;99312.44;20727456;28;20051;-68
2021/11/01 09:51:44;;;;;;;2.58;0.73;;;;;;;11.21;87.90;99316.66;20734018;28;20131;-70
2021/11/01 10:01:50;;;;;;;3.92;0.88;;;;;;;11.08;87.93;99315.41;20785806;28;20267;-67
2021/11/01 10:11:52;;;;;;;2.75;0.90;;;;;;;11.12;88.40;99312.63;20803807;28;20072;-67
2021/11/01 10:21:57;;;;;;;2.03;0.95;;;;;;;11.39;86.38;99316.00;20738185;28;20427;-69
2021/11/01 10:32:00;;;;;;;5.00;1.10;;;;;;;11.77;84.29;99316.34;20736754;28;20046;-68
2021/11/01 10:42:21;;;;;;;4.90;1.10;;;;;;;11.87;84.32;99302.00;20736487;28;20521;-69
2021/11/01 11:12:55;;;;;;;4.38;1.00;;;;;;;12.13;81.33;99292.25;20759940;28;20560;-68
2021/11/01 11:44:01;;;;;;;4.43;1.15;;;;;;;12.77;79.08;99242.31;20814079;28;20111;-68
2021/11/01 11:54:06;;;;;;;4.68;1.00;;;;;;;12.77;77.84;99226.56;20814689;28;20115;-68
2021/11/01 12:04:24;;;;;;;4.00;1.13;;;;;;;12.93;77.57;99206.56;20808828;28;20460;-68
2021/11/01 12:17:03;;;;;;;3.50;0.60;;;;;;;13.03;75.46;99204.38;20769430;28;20046;-68
2021/11/01 12:25:07;;;;;;;2.65;0.70;;;;;;;13.09;73.47;99186.59;20727115;28;20474;-68
2021/11/01 12:35:21;;;;;;;4.32;1.02;;;;;;;13.29;73.73;99182.22;20725950;28;20046;-68
2021/11/01 13:06:45;;;;;;;4.07;0.90;;;;;;;13.63;71.05;99154.34;20808701;28;20050;-69
2021/11/01 13:37:35;;;;;;;5.20;1.20;;;;;;;13.44;69.42;99160.47;20742950;28;20045;-68
2021/11/01 13:47:59;;;;;;;;;;;;;;;13.24;70.37;99155.31;20743378;28;20050;-68
2021/11/01 13:58:06;;;;;;;7.82;1.40;;;;;;;13.27;72.16;99157.78;20737693;28;19921;-68
2021/11/01 14:29:00;;;;;;;9.45;2.17;;;;;;;13.40;69.21;99145.75;20822289;28;20490;-73
2021/11/01 15:00:19;;;;;;;6.93;1.50;;;;;;;12.29;82.27;99143.75;20819441;28;20153;-69
2021/11/01 16:22:27;;;;;;;7.60;2.17;;;;;;;10.32;90.90;99162.69;20811431;28;20050;-69
2021/11/01 16:32:45;;;;;;;8.60;2.67;;;;;;;10.06;91.98;99160.94;20811409;28;20049;-69
2021/11/01 16:42:47;;;;;;;7.80;3.33;;;;;;;9.86;93.15;99179.88;20811104;28;20049;-69
2021/11/01 16:52:49;;;;;;;9.40;2.78;;;;;;;9.67;93.23;99181.38;20811996;28;20041;-70
2021/11/01 17:03:13;;;;;;;12.00;3.83;;;;;;;9.52;94.50;99186.16;20809306;28;20049;-70
2021/11/01 17:24:05;;;;;;;11.40;4.18;;;;;;;9.35;94.32;99187.59;20727002;28;20058;-70
2021/11/01 18:36:49;;;;;;;23.55;15.73;;;;;;;8.10;94.83;99202.31;20818761;28;20088;-69
2021/11/01 18:57:01;;;;;;;14.30;8.82;;;;;;;7.80;96.03;99196.94;20818526;28;20045;-69
2021/11/01 19:07:11;;;;;;;26.52;14.98;;;;;;;7.65;95.79;99197.28;20814489;28;20054;-70
2021/11/01 21:31:44;;;;;;;14.93;8.27;;;;;;;6.07;95.26;99190.03;20808524;28;20053;-73
2021/11/01 21:41:45;;;;;;;15.80;8.05;;;;;;;6.10;96.87;99177.00;20808029;28;20144;-71
2021/11/01 21:51:47;;;;;;;12.18;6.95;;;;;;;5.98;96.35;99173.75;20822650;28;20514;-71
2021/11/01 22:22:46;;;;;;;11.60;7.70;;;;;;;5.73;96.16;99152.50;20740064;28;20054;-73
2021/11/01 22:43:31;;;;;;;11.07;5.43;;;;;;;5.60;96.92;99137.09;20738401;28;20054;-77
2021/11/01 23:34:42;;;;;;;9.40;4.97;;;;;;;6.46;97.96;99100.97;20822256;28;20076;-71
2021/11/01 23:44:43;;;;;;;8.50;4.55;;;;;;;6.70;97.46;99092.66;20822311;28;20058;-75
2021/11/01 23:54:45;;;;;;;10.50;4.95;;;;;;;6.73;97.33;99082.19;20822205;28;20052;-70
